Mandeville, LA (70448)

5:12 PM CST on December 27, 2014 (GMT -0600)
Soult Street/Molitor Street | Change Station
CLOSE
Current Station
Personal Weather Station
Location: Mandeville, LA
Elevation: 46 ft
Nearby Weather Stations

Elev 46 ft 30.37 °N, 90.04 °W | Updated 8 seconds ago

Overcast
Overcast
65.7 °F
Feels Like 65.7 °F
N
0.0
Wind Variable Wind from North
Gusts 0.0 mph

Today
High -- | Low -- °F
--% Chance of Precip.
Yesterday
High -- | Low -- °F
Precip. -- in
6:55 AM 5:07 PM
Waxing Crescent, 41% visible
Pressure 30.07 in
Visibility 8.0 miles
Clouds Overcast 600 ft
Dew Point 66 °F
Humidity 100%
Rainfall 0.83 in
Snow Depth Not available.
UV 0 out of 12
Pollen .60 out of 12
Air Quality Not available.
Flu Activity Not available.
METAR KASD 272253Z AUTO 17008KT 8SM OVC006 21/19 A3007 RMK AO2 LTG DSNT W-N SLP181 T02060189

More Conditions Fewer Conditions

Pressure 30.07 in
Visibility 8.0 miles
Clouds Overcast 600 ft
Dew Point 66 °F
Humidity 100%
Rainfall 0.83 in
Snow Depth Not available.
UV 0 out of 12
Pollen .60 out of 12
Air Quality Not available.
Flu Activity Not available.
METAR KASD 272253Z AUTO 17008KT 8SM OVC006 21/19 A3007 RMK AO2 LTG DSNT W-N SLP181 T02060189

More Conditions Fewer Conditions

10-Day Weather Forecast

Almanac

Astronomy

Dec. 27, 2014 Rise Set
Actual Time
Civil Twilight
Nautical Twilight
Astronomical Twilight
Moon
Length of Visible Light
Length of Day
Tomorrow will be .
, % of the Moon is Illuminated

Today's Extremes

State Highs State Lows

Community

WunderPhotos

Upload Photos

1,781,100 photos uploaded!

WunderBlogs® & News

Nearby

Air Quality

  Air Quality AQ Index Pollutant
Not available.

Snow Depth

Station Depth Elevation

Earthquake Activity

City Distance Mag. Time & Date
Minimum magnitude displayed is 2.5.

Coastal Water Temperatures

Place Temperature

Nearby Weather Stations